PWSweather.com
Personal Weather Stations
Station Observations

MakarauRodneyNZ

Lat: -36.52421, Lon: 174.47572

Elevation: 606

Station Type: Davis VP2

http://kaiparaweather.dynu.net/index.php

Latest ConditionsUpdated 3:20:01 PM GMT+12:12 Saturday, Jan 18, 2020
Currently Today's Max Today's Min Today's Average
Temperature 72.8°F22.7°C 76.3°F24.6°C 57.2°F14.0°C 65.5°F18.6°C
Dew Point 60.3°F15.7°C 61.0°F16.1°C 54.3°F12.4°C 57.7°F14.3°C
Winds 10.4 mph SW16.7 kmh SW 10.4 mph -16.7 kmh - - 2.2 mph 3.5 kmh
Wind Gusts 12.7 mph20.4 kmh 16.1 mph25.9 kmh - -
Humidity 65% 93% 58% 77%
Pressure 29.92 in1013.2 mb 30.03 in1016.9 mb 29.92 in1013.2 mb -
Hour Temp Dew Point Humidity Winds Wind Gusts Pressure Precip Precip Rate Daily Precip Total
03:20 PM 72.8°F22.7°C 60.3°F15.7°C 65% 10.4 mph SW16.7 kmh SW 12.7 mph20.4 kmh 29.92 in1013.2 mb - 0.00 in0.0 mm 0.00 in0.0 mm
03:10 PM 71.5°F21.9°C 59.9°F15.5°C 67% 8.1 mph SW13.0 kmh SW 10.4 mph16.7 kmh 29.92 in1013.2 mb - 0.00 in0.0 mm 0.00 in0.0 mm
03:00 PM 72.5°F22.5°C 60.5°F15.8°C 66% 5.8 mph SW9.3 kmh SW 8.1 mph13.0 kmh 29.92 in1013.2 mb - 0.00 in0.0 mm 0.00 in0.0 mm
02:50 PM 73.1°F22.8°C 60.6°F15.9°C 65% 5.8 mph SW9.3 kmh SW 11.5 mph18.5 kmh 29.92 in1013.2 mb - 0.00 in0.0 mm 0.00 in0.0 mm
02:40 PM 73.9°F23.3°C 61.0°F16.1°C 64% 8.1 mph WSW13.0 kmh WSW 13.8 mph22.2 kmh 29.92 in1013.2 mb - 0.00 in0.0 mm 0.00 in0.0 mm
02:30 PM 73.9°F23.3°C 60.5°F15.8°C 63% 8.1 mph SW13.0 kmh SW 11.5 mph18.5 kmh 29.92 in1013.2 mb - 0.00 in0.0 mm 0.00 in0.0 mm
02:20 PM 73.6°F23.1°C 60.2°F15.7°C 63% 5.8 mph SW9.3 kmh SW 16.1 mph25.9 kmh 29.92 in1013.2 mb - 0.00 in0.0 mm 0.00 in0.0 mm
02:10 PM 73.8°F23.2°C 60.4°F15.8°C 63% 8.1 mph W13.0 kmh W 11.5 mph18.5 kmh 29.92 in1013.2 mb - 0.00 in0.0 mm 0.00 in0.0 mm
02:00 PM 75.0°F23.9°C 60.1°F15.6°C 60% 8.1 mph WSW13.0 kmh WSW 10.4 mph16.7 kmh 29.93 in1013.5 mb - 0.00 in0.0 mm 0.00 in0.0 mm
01:50 PM 75.4°F24.1°C 60.0°F15.6°C 59% 5.8 mph SW9.3 kmh SW 11.5 mph18.5 kmh 29.93 in1013.5 mb - 0.00 in0.0 mm 0.00 in0.0 mm
01:40 PM 75.6°F24.2°C 60.2°F15.7°C 59% 6.9 mph SW11.1 kmh SW 9.2 mph14.8 kmh 29.93 in1013.5 mb - 0.00 in0.0 mm 0.00 in0.0 mm
01:30 PM 76.3°F24.6°C 60.4°F15.8°C 58% 6.9 mph SW11.1 kmh SW 11.5 mph18.5 kmh 29.93 in1013.5 mb - 0.00 in0.0 mm 0.00 in0.0 mm
01:20 PM 75.6°F24.2°C 60.7°F15.9°C 60% 9.2 mph WSW14.8 kmh WSW 12.7 mph20.4 kmh 29.93 in1013.5 mb - 0.00 in0.0 mm 0.00 in0.0 mm
01:10 PM 74.7°F23.7°C 60.8°F16.0°C 62% 6.9 mph WSW11.1 kmh WSW 11.5 mph18.5 kmh 29.93 in1013.5 mb - 0.00 in0.0 mm 0.00 in0.0 mm
01:00 PM 74.3°F23.5°C 59.5°F15.3°C 60% 5.8 mph SSW9.3 kmh SSW 11.5 mph18.5 kmh 29.93 in1013.5 mb - 0.00 in0.0 mm 0.00 in0.0 mm
12:50 PM 73.6°F23.1°C 59.3°F15.2°C 61% 6.9 mph SW11.1 kmh SW 8.1 mph13.0 kmh 29.94 in1013.9 mb - 0.00 in0.0 mm 0.00 in0.0 mm
12:40 PM 73.7°F23.2°C 60.7°F15.9°C 64% 5.8 mph WSW9.3 kmh WSW 8.1 mph13.0 kmh 29.94 in1013.9 mb - 0.00 in0.0 mm 0.00 in0.0 mm
12:30 PM 74.0°F23.3°C 59.7°F15.4°C 61% 3.5 mph SW5.6 kmh SW 4.6 mph7.4 kmh 29.95 in1014.2 mb - 0.00 in0.0 mm 0.00 in0.0 mm
12:20 PM 73.0°F22.8°C 59.7°F15.4°C 63% 9.2 mph NW14.8 kmh NW 13.8 mph22.2 kmh 29.95 in1014.2 mb - 0.00 in0.0 mm 0.00 in0.0 mm
12:10 PM 72.1°F22.3°C 60.6°F15.9°C 67% 5.8 mph SW9.3 kmh SW 10.4 mph16.7 kmh 29.95 in1014.2 mb - 0.00 in0.0 mm 0.00 in0.0 mm
12:00 PM 73.4°F23.0°C 59.6°F15.3°C 62% 3.5 mph SW5.6 kmh SW 10.4 mph16.7 kmh 29.95 in1014.2 mb - 0.00 in0.0 mm 0.00 in0.0 mm
11:50 AM 72.8°F22.7°C 59.4°F15.2°C 63% 8.1 mph NW13.0 kmh NW 12.7 mph20.4 kmh 29.95 in1014.2 mb - 0.00 in0.0 mm 0.00 in0.0 mm
11:40 AM 72.0°F22.2°C 59.1°F15.1°C 64% 5.8 mph S9.3 kmh S 6.9 mph11.1 kmh 29.96 in1014.6 mb - 0.00 in0.0 mm 0.00 in0.0 mm
11:30 AM 71.4°F21.9°C 59.9°F15.5°C 67% 4.6 mph SSW7.4 kmh SSW 5.8 mph9.3 kmh 29.96 in1014.6 mb - 0.00 in0.0 mm 0.00 in0.0 mm
11:20 AM 72.0°F22.2°C 60.8°F16.0°C 68% 1.2 mph WSW1.9 kmh WSW 5.8 mph9.3 kmh 29.96 in1014.6 mb - 0.00 in0.0 mm 0.00 in0.0 mm
11:10 AM 72.4°F22.4°C 59.1°F15.1°C 63% 3.5 mph SW5.6 kmh SW 5.8 mph9.3 kmh 29.97 in1014.9 mb - 0.00 in0.0 mm 0.00 in0.0 mm
11:00 AM 71.0°F21.7°C 59.0°F15.0°C 66% 2.3 mph WSW3.7 kmh WSW 5.8 mph9.3 kmh 29.97 in1014.9 mb - 0.00 in0.0 mm 0.00 in0.0 mm
10:50 AM 70.6°F21.4°C 59.1°F15.1°C 67% 2.3 mph SW3.7 kmh SW 6.9 mph11.1 kmh 29.97 in1014.9 mb - 0.00 in0.0 mm 0.00 in0.0 mm
10:40 AM 71.4°F21.9°C 58.6°F14.8°C 64% 2.3 mph SSW3.7 kmh SSW 12.7 mph20.4 kmh 29.98 in1015.2 mb - 0.00 in0.0 mm 0.00 in0.0 mm
10:30 AM 71.6°F22.0°C 59.6°F15.3°C 66% 2.3 mph SSW3.7 kmh SSW 5.8 mph9.3 kmh 29.98 in1015.2 mb - 0.00 in0.0 mm 0.00 in0.0 mm
10:20 AM 70.4°F21.3°C 60.2°F15.7°C 70% 1.2 mph WNW1.9 kmh WNW 5.8 mph9.3 kmh 29.98 in1015.2 mb - 0.00 in0.0 mm 0.00 in0.0 mm
10:10 AM 69.7°F20.9°C 59.9°F15.5°C 71% 2.3 mph SW3.7 kmh SW 6.9 mph11.1 kmh 29.98 in1015.2 mb - 0.00 in0.0 mm 0.00 in0.0 mm
10:00 AM 71.2°F21.8°C 59.7°F15.4°C 67% 2.3 mph SW3.7 kmh SW 5.8 mph9.3 kmh 29.99 in1015.6 mb - 0.00 in0.0 mm 0.00 in0.0 mm
09:50 AM 71.2°F21.8°C 58.4°F14.7°C 64% 2.3 mph S3.7 kmh S 3.5 mph5.6 kmh 29.99 in1015.6 mb - 0.00 in0.0 mm 0.00 in0.0 mm
09:40 AM 70.7°F21.5°C 59.2°F15.1°C 67% 2.3 mph SSW3.7 kmh SSW 3.5 mph5.6 kmh 30.00 in1015.9 mb - 0.00 in0.0 mm 0.00 in0.0 mm
09:30 AM 69.8°F21.0°C 59.5°F15.3°C 70% 1.2 mph SW1.9 kmh SW 9.2 mph14.8 kmh 29.99 in1015.6 mb - 0.00 in0.0 mm 0.00 in0.0 mm
09:20 AM 71.6°F22.0°C 59.2°F15.1°C 65% 2.3 mph SSW3.7 kmh SSW 6.9 mph11.1 kmh 30.00 in1015.9 mb - 0.00 in0.0 mm 0.00 in0.0 mm
09:10 AM 69.4°F20.8°C 58.8°F14.9°C 69% 4.6 mph NW7.4 kmh NW 8.1 mph13.0 kmh 30.00 in1015.9 mb - 0.00 in0.0 mm 0.00 in0.0 mm
09:00 AM 69.4°F20.8°C 59.2°F15.1°C 70% 5.8 mph SSW9.3 kmh SSW 11.5 mph18.5 kmh 30.00 in1015.9 mb - 0.00 in0.0 mm 0.00 in0.0 mm
08:50 AM 69.7°F20.9°C 59.1°F15.1°C 69% 2.3 mph SW3.7 kmh SW 6.9 mph11.1 kmh 30.00 in1015.9 mb - 0.00 in0.0 mm 0.00 in0.0 mm
08:40 AM 69.0°F20.6°C 59.6°F15.3°C 72% 3.5 mph WSW5.6 kmh WSW 5.8 mph9.3 kmh 30.00 in1015.9 mb - 0.00 in0.0 mm 0.00 in0.0 mm
08:30 AM 68.2°F20.1°C 59.6°F15.3°C 74% Calm Calm -- 30.01 in1016.3 mb - 0.00 in0.0 mm 0.00 in0.0 mm
08:20 AM 67.4°F19.7°C 58.4°F14.7°C 73% Calm Calm -- 30.01 in1016.3 mb - 0.00 in0.0 mm 0.00 in0.0 mm
08:10 AM 69.6°F20.9°C 59.0°F15.0°C 69% Calm Calm 1.2 mph1.9 kmh 30.01 in1016.3 mb - 0.00 in0.0 mm 0.00 in0.0 mm
08:00 AM 69.5°F20.8°C 59.6°F15.3°C 71% Calm Calm -- 30.01 in1016.3 mb - 0.00 in0.0 mm 0.00 in0.0 mm
07:50 AM 68.0°F20.0°C 60.2°F15.7°C 76% Calm Calm -- 30.02 in1016.6 mb - 0.00 in0.0 mm 0.00 in0.0 mm
07:40 AM 66.9°F19.4°C 59.9°F15.5°C 78% Calm Calm -- 30.02 in1016.6 mb - 0.00 in0.0 mm 0.00 in0.0 mm
07:30 AM 65.8°F18.8°C 59.5°F15.3°C 80% Calm Calm -- 30.02 in1016.6 mb - 0.00 in0.0 mm 0.00 in0.0 mm
07:20 AM 64.3°F17.9°C 58.7°F14.8°C 82% Calm Calm -- 30.02 in1016.6 mb - 0.00 in0.0 mm 0.00 in0.0 mm
07:10 AM 62.4°F16.9°C 58.5°F14.7°C 87% Calm Calm -- 30.02 in1016.6 mb - 0.00 in0.0 mm 0.00 in0.0 mm
07:00 AM 60.6°F15.9°C 57.7°F14.3°C 90% Calm Calm -- 30.03 in1016.9 mb - 0.00 in0.0 mm 0.00 in0.0 mm
06:50 AM 59.4°F15.2°C 57.1°F13.9°C 92% Calm Calm -- 30.03 in1016.9 mb - 0.00 in0.0 mm 0.00 in0.0 mm
06:40 AM 58.8°F14.9°C 56.5°F13.6°C 92% Calm Calm -- 30.02 in1016.6 mb - 0.00 in0.0 mm 0.00 in0.0 mm
06:30 AM 58.5°F14.7°C 56.2°F13.4°C 92% Calm Calm -- 30.03 in1016.9 mb - 0.00 in0.0 mm 0.00 in0.0 mm
06:20 AM 58.3°F14.6°C 56.2°F13.4°C 93% Calm Calm -- 30.02 in1016.6 mb - 0.00 in0.0 mm 0.00 in0.0 mm
06:10 AM 58.0°F14.4°C 55.7°F13.2°C 92% Calm Calm -- 30.02 in1016.6 mb - 0.00 in0.0 mm 0.00 in0.0 mm
06:00 AM 57.8°F14.3°C 55.5°F13.1°C 92% Calm Calm -- 30.02 in1016.6 mb - 0.00 in0.0 mm 0.00 in0.0 mm
05:50 AM 57.7°F14.3°C 55.1°F12.8°C 91% Calm Calm -- 30.02 in1016.6 mb - 0.00 in0.0 mm 0.00 in0.0 mm
05:40 AM 57.8°F14.3°C 55.2°F12.9°C 91% Calm Calm -- 30.02 in1016.6 mb - 0.00 in0.0 mm 0.00 in0.0 mm
05:30 AM 57.7°F14.3°C 55.4°F13.0°C 92% Calm Calm -- 30.02 in1016.6 mb - 0.00 in0.0 mm 0.00 in0.0 mm
05:20 AM 57.5°F14.2°C 54.8°F12.7°C 91% Calm Calm -- 30.02 in1016.6 mb - 0.00 in0.0 mm 0.00 in0.0 mm
05:10 AM 57.5°F14.2°C 54.6°F12.6°C 90% Calm Calm -- 30.02 in1016.6 mb - 0.00 in0.0 mm 0.00 in0.0 mm
05:00 AM 57.7°F14.3°C 54.8°F12.7°C 90% Calm Calm -- 30.02 in1016.6 mb - 0.00 in0.0 mm 0.00 in0.0 mm
04:50 AM 57.7°F14.3°C 55.1°F12.8°C 91% Calm Calm -- 30.02 in1016.6 mb - 0.00 in0.0 mm 0.00 in0.0 mm
04:40 AM 57.6°F14.2°C 55.0°F12.8°C 91% Calm Calm -- 30.02 in1016.6 mb - 0.00 in0.0 mm 0.00 in0.0 mm
04:30 AM 57.4°F14.1°C 54.8°F12.7°C 91% Calm Calm -- 30.01 in1016.3 mb - 0.00 in0.0 mm 0.00 in0.0 mm
04:20 AM 57.2°F14.0°C 54.3°F12.4°C 90% Calm Calm -- 30.01 in1016.3 mb - 0.00 in0.0 mm 0.00 in0.0 mm
04:10 AM 57.4°F14.1°C 54.5°F12.5°C 90% Calm Calm -- 30.01 in1016.3 mb - 0.00 in0.0 mm 0.00 in0.0 mm
04:00 AM 57.5°F14.2°C 54.3°F12.4°C 89% Calm Calm -- 30.01 in1016.3 mb - 0.00 in0.0 mm 0.00 in0.0 mm
03:50 AM 57.7°F14.3°C 54.5°F12.5°C 89% Calm Calm -- 30.01 in1016.3 mb - 0.00 in0.0 mm 0.00 in0.0 mm
03:40 AM 58.0°F14.4°C 54.7°F12.6°C 89% Calm Calm -- 30.01 in1016.3 mb - 0.00 in0.0 mm 0.00 in0.0 mm
03:30 AM 58.3°F14.6°C 54.8°F12.7°C 88% Calm Calm -- 30.00 in1015.9 mb - 0.00 in0.0 mm 0.00 in0.0 mm
03:20 AM 58.7°F14.8°C 55.1°F12.8°C 88% Calm Calm -- 30.00 in1015.9 mb - 0.00 in0.0 mm 0.00 in0.0 mm
03:10 AM 58.8°F14.9°C 55.3°F12.9°C 88% Calm Calm -- 30.01 in1016.3 mb - 0.00 in0.0 mm 0.00 in0.0 mm
03:00 AM 58.9°F14.9°C 55.3°F12.9°C 88% Calm Calm -- 30.01 in1016.3 mb - 0.00 in0.0 mm 0.00 in0.0 mm
02:50 AM 59.1°F15.1°C 55.2°F12.9°C 87% Calm Calm -- 30.01 in1016.3 mb - 0.00 in0.0 mm 0.00 in0.0 mm
02:40 AM 59.3°F15.2°C 55.1°F12.8°C 86% Calm Calm -- 30.01 in1016.3 mb - 0.00 in0.0 mm 0.00 in0.0 mm
02:30 AM 59.5°F15.3°C 55.6°F13.1°C 87% Calm Calm -- 30.01 in1016.3 mb - 0.00 in0.0 mm 0.00 in0.0 mm
02:20 AM 59.6°F15.3°C 55.7°F13.2°C 87% Calm Calm -- 30.01 in1016.3 mb - 0.00 in0.0 mm 0.00 in0.0 mm
02:10 AM 59.7°F15.4°C 55.8°F13.2°C 87% Calm Calm -- 30.01 in1016.3 mb - 0.00 in0.0 mm 0.00 in0.0 mm
02:00 AM 59.8°F15.4°C 55.9°F13.3°C 87% Calm Calm -- 30.01 in1016.3 mb - 0.00 in0.0 mm 0.00 in0.0 mm
01:50 AM 59.7°F15.4°C 55.8°F13.2°C 87% Calm Calm -- 30.01 in1016.3 mb - 0.00 in0.0 mm 0.00 in0.0 mm
01:40 AM 59.6°F15.3°C 56.0°F13.3°C 88% Calm Calm -- 30.01 in1016.3 mb - 0.00 in0.0 mm 0.00 in0.0 mm
01:30 AM 59.4°F15.2°C 55.8°F13.2°C 88% Calm Calm -- 30.01 in1016.3 mb - 0.00 in0.0 mm 0.00 in0.0 mm
01:20 AM 59.3°F15.2°C 55.7°F13.2°C 88% Calm Calm -- 30.01 in1016.3 mb - 0.00 in0.0 mm 0.00 in0.0 mm
01:10 AM 59.0°F15.0°C 55.8°F13.2°C 89% Calm Calm -- 30.01 in1016.3 mb - 0.00 in0.0 mm 0.00 in0.0 mm
01:00 AM 58.8°F14.9°C 55.6°F13.1°C 89% Calm Calm -- 30.02 in1016.6 mb - 0.00 in0.0 mm 0.00 in0.0 mm
12:50 AM 58.7°F14.8°C 55.2°F12.9°C 88% Calm Calm -- 30.02 in1016.6 mb - 0.00 in0.0 mm 0.00 in0.0 mm
12:40 AM 58.8°F14.9°C 54.9°F12.7°C 87% Calm Calm -- 30.02 in1016.6 mb - 0.00 in0.0 mm 0.00 in0.0 mm
12:30 AM 58.7°F14.8°C 55.2°F12.9°C 88% Calm Calm -- 30.02 in1016.6 mb - 0.00 in0.0 mm 0.00 in0.0 mm
12:20 AM 58.7°F14.8°C 54.8°F12.7°C 87% Calm Calm -- 30.03 in1016.9 mb - 0.00 in0.0 mm 0.00 in0.0 mm
12:10 AM 58.8°F14.9°C 54.6°F12.6°C 86% Calm Calm -- 30.03 in1016.9 mb - 0.00 in0.0 mm 0.00 in0.0 mm
12:00 AM 58.9°F14.9°C 54.7°F12.6°C 86% Calm Calm -- 30.03 in1016.9 mb - 0.00 in0.0 mm 0.00 in0.0 mm